Terminal Aerodrome Forecast
Issued by NWS

Current Version | Previous Version | Graphics & Text | Print | Product List | Glossary On
Versions: 1 2 3 4 5 6 7 8 9 10 11 12 13 14 15 16 17 18 19 20 21 22
000
FTUS41 KPBZ 210854 AAA
TAFHLG
TAF AMD
KHLG 210854Z 2109/2206 22005KT 3SM -DZ OVC004
     FM211500 21005KT P6SM VCSH OVC010
     FM220300 21004KT 4SM -DZ BR OVC006=

USA.gov is the U.S. government's official web portal to all federal, state and local government web resources and services.